createdAt,value
2017-10-15T00:00:15.425Z,21.20
2017-10-15T00:01:15.442Z,19.00
2017-10-15T00:02:15.463Z,18.00
2017-10-15T00:03:15.484Z,22.60
2017-10-15T00:04:15.498Z,20.40
2017-10-15T00:05:15.516Z,18.40
2017-10-15T00:06:15.548Z,24.50
2017-10-15T00:07:15.560Z,21.30
2017-10-15T00:08:15.586Z,19.20
2017-10-15T00:09:15.595Z,18.60
2017-10-15T00:10:15.616Z,17.40
2017-10-15T00:11:15.633Z,15.90
2017-10-15T00:12:15.672Z,14.80
2017-10-15T00:13:15.676Z,18.70
2017-10-15T00:14:15.693Z,17.50
2017-10-15T00:15:15.713Z,17.00
2017-10-15T00:16:15.736Z,21.50
2017-10-15T00:17:15.754Z,27.00
2017-10-15T00:18:15.774Z,16.30
2017-10-15T00:19:15.790Z,17.30
2017-10-15T00:20:15.810Z,17.30
2017-10-15T00:21:15.830Z,19.10
2017-10-15T00:22:15.848Z,16.20
2017-10-15T00:23:15.870Z,26.30
2017-10-15T00:24:15.886Z,17.00
2017-10-15T00:25:15.908Z,19.60
2017-10-15T00:26:15.927Z,24.60
2017-10-15T00:27:15.946Z,19.70
2017-10-15T00:28:15.968Z,17.80
2017-10-15T00:29:16.013Z,19.80
2017-10-15T00:30:16.013Z,14.30
2017-10-15T00:31:16.029Z,18.10
2017-10-15T00:32:16.043Z,20.10
2017-10-15T00:33:16.062Z,15.20
2017-10-15T00:34:16.084Z,14.70
2017-10-15T00:35:16.110Z,16.70
2017-10-15T00:36:16.126Z,18.50
2017-10-15T00:37:16.265Z,16.00
2017-10-15T00:38:16.164Z,23.30
2017-10-15T00:39:16.178Z,15.70
2017-10-15T00:40:16.197Z,20.10
2017-10-15T00:41:16.216Z,20.70
2017-10-15T00:42:16.240Z,20.50
2017-10-15T00:43:16.256Z,18.60
2017-10-15T00:44:16.277Z,14.00
2017-10-15T00:45:16.297Z,22.10
2017-10-15T00:46:16.315Z,23.80
2017-10-15T00:47:16.334Z,15.30
2017-10-15T00:48:16.353Z,15.60
2017-10-15T00:49:16.490Z,18.30
2017-10-15T00:50:16.392Z,20.30
2017-10-15T00:51:16.413Z,17.30
2017-10-15T00:52:16.431Z,13.70
2017-10-15T00:53:16.450Z,16.40
2017-10-15T00:54:16.469Z,13.80
2017-10-15T00:55:16.489Z,19.30
2017-10-15T00:56:16.506Z,15.30
2017-10-15T00:57:16.529Z,14.90
2017-10-15T00:58:16.551Z,13.60
2017-10-15T00:59:16.571Z,15.90
2017-10-15T01:00:16.737Z,20.70
2017-10-15T01:01:16.614Z,22.10
2017-10-15T01:02:16.628Z,21.20
2017-10-15T01:03:16.652Z,16.60
2017-10-15T01:04:16.662Z,14.70
2017-10-15T01:05:16.683Z,17.60
2017-10-15T01:06:16.704Z,15.50
2017-10-15T01:07:16.722Z,12.90
2017-10-15T01:08:16.745Z,21.30
2017-10-15T01:09:16.765Z,21.60
2017-10-15T01:10:16.780Z,14.00
2017-10-15T01:11:16.800Z,17.10
2017-10-15T01:12:16.815Z,18.20
2017-10-15T01:13:16.837Z,20.40
2017-10-15T01:14:16.857Z,17.70
2017-10-15T01:15:16.876Z,15.10
2017-10-15T01:16:16.895Z,15.90
2017-10-15T01:17:16.917Z,16.20
2017-10-15T01:18:16.932Z,23.20
2017-10-15T01:19:16.951Z,17.50
2017-10-15T01:20:16.971Z,16.40
2017-10-15T01:21:17.013Z,14.90
2017-10-15T01:22:17.011Z,14.90
2017-10-15T01:23:17.030Z,18.90
2017-10-15T01:24:17.045Z,20.60
2017-10-15T01:25:17.071Z,21.70
2017-10-15T01:26:17.087Z,21.70
2017-10-15T01:27:17.107Z,17.50
2017-10-15T01:28:17.125Z,20.90
2017-10-15T01:29:17.145Z,18.90
2017-10-15T01:30:17.166Z,22.90
2017-10-15T01:31:17.185Z,16.60
2017-10-15T01:32:17.203Z,20.40
2017-10-15T01:33:17.237Z,18.30
2017-10-15T01:34:17.247Z,14.60
2017-10-15T01:35:17.262Z,17.80
2017-10-15T01:36:17.279Z,18.60
2017-10-15T01:37:17.299Z,21.80
2017-10-15T01:38:17.322Z,16.40
2017-10-15T01:39:17.339Z,17.90
2017-10-15T01:40:17.359Z,17.20
2017-10-15T01:41:17.378Z,20.70
2017-10-15T01:42:17.403Z,21.90
2017-10-15T01:43:17.415Z,18.10
2017-10-15T01:44:17.434Z,16.40
2017-10-15T01:45:17.460Z,18.70
2017-10-15T01:46:17.477Z,20.20
2017-10-15T01:47:17.492Z,17.70
2017-10-15T01:48:17.511Z,18.70
2017-10-15T01:49:17.531Z,15.10
2017-10-15T01:50:17.549Z,17.00
2017-10-15T01:51:17.573Z,16.30
2017-10-15T01:52:17.587Z,25.40
2017-10-15T01:53:17.608Z,16.70
2017-10-15T01:54:17.626Z,17.20
2017-10-15T01:55:17.648Z,17.40
2017-10-15T01:56:17.666Z,21.00
2017-10-15T01:57:17.690Z,21.20
2017-10-15T01:58:17.702Z,27.00
2017-10-15T01:59:17.722Z,26.10
2017-10-15T02:00:17.746Z,18.10
2017-10-15T02:01:17.764Z,25.80
2017-10-15T02:02:17.779Z,19.70
2017-10-15T02:03:17.804Z,22.40
2017-10-15T02:04:17.817Z,29.60
2017-10-15T02:05:17.837Z,21.20
2017-10-15T02:06:17.857Z,25.60
2017-10-15T02:07:17.876Z,21.70
2017-10-15T02:08:17.904Z,27.80
2017-10-15T02:09:17.918Z,29.90
2017-10-15T02:10:17.939Z,25.70
2017-10-15T02:11:17.952Z,22.80
2017-10-15T02:12:17.972Z,22.90
2017-10-15T02:13:17.990Z,27.00
2017-10-15T02:14:18.009Z,19.60
2017-10-15T02:15:18.032Z,19.30
2017-10-15T02:16:18.049Z,19.50
2017-10-15T02:17:18.092Z,31.60
2017-10-15T02:18:18.089Z,23.00
2017-10-15T02:19:18.110Z,22.90
2017-10-15T02:20:18.129Z,22.90
2017-10-15T02:21:18.145Z,24.30
2017-10-15T02:22:18.168Z,25.50
2017-10-15T02:23:18.182Z,29.70
2017-10-15T02:24:18.204Z,22.30
2017-10-15T02:25:18.220Z,24.70
2017-10-15T02:26:18.242Z,22.20
2017-10-15T02:27:18.259Z,18.70
2017-10-15T02:28:18.282Z,22.80
2017-10-15T02:29:18.297Z,22.80
2017-10-15T02:30:18.332Z,27.20
2017-10-15T02:31:18.336Z,19.60
2017-10-15T02:32:18.356Z,26.70
2017-10-15T02:33:18.373Z,20.90
2017-10-15T02:34:18.392Z,22.40
2017-10-15T02:35:18.418Z,23.10
2017-10-15T02:36:18.434Z,23.20
2017-10-15T02:37:18.451Z,25.40
2017-10-15T02:38:18.470Z,22.40
2017-10-15T02:39:18.494Z,18.60
2017-10-15T02:40:18.508Z,26.50
2017-10-15T02:41:18.529Z,17.60
2017-10-15T02:42:18.546Z,15.80
2017-10-15T02:43:18.568Z,23.40
2017-10-15T02:44:18.588Z,18.70
2017-10-15T02:45:18.604Z,21.50
2017-10-15T02:46:18.623Z,19.00
2017-10-15T02:47:18.650Z,24.40
2017-10-15T02:48:18.661Z,17.00
2017-10-15T02:49:18.681Z,21.90
2017-10-15T02:50:18.700Z,22.60
2017-10-15T02:51:18.717Z,21.10
2017-10-15T02:52:18.736Z,26.10
2017-10-15T02:53:18.765Z,23.10
2017-10-15T02:54:18.774Z,22.00
2017-10-15T02:55:18.795Z,23.90
2017-10-15T02:56:18.813Z,17.70
2017-10-15T02:57:18.840Z,18.00
2017-10-15T02:58:18.911Z,24.50
2017-10-15T02:59:18.869Z,20.00
2017-10-15T03:00:18.891Z,23.20
2017-10-15T03:01:18.911Z,23.30
2017-10-15T03:02:18.930Z,21.10
2017-10-15T03:03:18.948Z,21.70
2017-10-15T03:04:18.965Z,20.00
2017-10-15T03:05:18.988Z,20.00
2017-10-15T03:06:19.004Z,21.60
2017-10-15T03:07:19.031Z,16.80
2017-10-15T03:08:19.046Z,18.70
2017-10-15T03:09:19.062Z,24.40
2017-10-15T03:10:19.080Z,23.20
2017-10-15T03:11:19.101Z,27.20
2017-10-15T03:12:19.119Z,22.10
2017-10-15T03:13:19.138Z,21.60
2017-10-15T03:14:19.157Z,17.60
2017-10-15T03:15:19.182Z,19.80
2017-10-15T03:16:19.205Z,19.50
2017-10-15T03:17:19.215Z,22.60
2017-10-15T03:18:19.235Z,20.50
2017-10-15T03:19:19.251Z,24.70
2017-10-15T03:20:19.271Z,28.10
2017-10-15T03:21:19.288Z,27.80
2017-10-15T03:22:19.308Z,19.20
2017-10-15T03:23:19.339Z,20.10
2017-10-15T03:24:19.344Z,24.10
2017-10-15T03:25:19.393Z,18.20
2017-10-15T03:26:19.382Z,18.80
2017-10-15T03:27:19.469Z,17.80
2017-10-15T03:28:19.421Z,23.60
2017-10-15T03:29:19.450Z,19.90
2017-10-15T03:30:19.463Z,22.30
2017-10-15T03:31:19.489Z,19.00
2017-10-15T03:32:19.497Z,18.60
2017-10-15T03:33:19.515Z,22.00
2017-10-15T03:34:19.545Z,26.70
2017-10-15T03:35:19.555Z,18.80
2017-10-15T03:36:19.573Z,24.40
2017-10-15T03:37:19.592Z,20.00
2017-10-15T03:38:19.621Z,22.20
2017-10-15T03:39:19.711Z,26.50
2017-10-15T03:40:19.648Z,22.90
2017-10-15T03:41:19.672Z,22.80
2017-10-15T03:42:19.689Z,27.10
2017-10-15T03:43:19.707Z,27.90
2017-10-15T03:44:19.724Z,26.00
2017-10-15T03:45:19.803Z,20.20
2017-10-15T03:46:19.764Z,23.30
2017-10-15T03:47:19.782Z,22.00
2017-10-15T03:48:19.798Z,22.90
2017-10-15T03:49:19.818Z,20.40
2017-10-15T03:50:19.838Z,16.00
2017-10-15T03:51:19.860Z,15.20
2017-10-15T03:52:19.877Z,18.30
2017-10-15T03:53:19.894Z,17.70
2017-10-15T03:54:19.914Z,19.30
2017-10-15T03:55:19.937Z,24.60
2017-10-15T03:56:19.965Z,21.90
2017-10-15T03:57:19.971Z,61.10
2017-10-15T03:58:19.989Z,51.70
2017-10-15T03:59:20.009Z,27.70
2017-10-15T04:00:20.026Z,33.70
2017-10-15T04:01:20.046Z,27.50
2017-10-15T04:02:20.067Z,30.10
2017-10-15T04:03:20.085Z,31.70
2017-10-15T04:04:20.104Z,30.40
2017-10-15T04:05:20.122Z,29.50
2017-10-15T04:06:20.142Z,26.60
2017-10-15T04:07:20.169Z,31.60
2017-10-15T04:08:20.181Z,23.00
2017-10-15T04:09:20.199Z,29.20
2017-10-15T04:10:20.219Z,29.60
2017-10-15T04:11:20.237Z,25.10
2017-10-15T04:12:20.255Z,29.80
2017-10-15T04:13:20.275Z,21.70
2017-10-15T04:14:20.295Z,21.30
2017-10-15T04:15:20.311Z,21.30
2017-10-15T04:16:20.330Z,27.10
2017-10-15T04:17:20.352Z,28.20
2017-10-15T04:18:20.369Z,79.70
2017-10-15T04:19:20.388Z,76.90
2017-10-15T04:20:20.409Z,58.20
2017-10-15T04:21:20.429Z,46.10
2017-10-15T04:22:20.448Z,69.70
2017-10-15T04:23:20.465Z,39.50
2017-10-15T04:24:20.481Z,74.70
2017-10-15T04:25:20.500Z,195.40
2017-10-15T04:26:20.520Z,445.90
2017-10-15T04:27:20.541Z,420.80
2017-10-15T04:28:20.557Z,423.20
2017-10-15T04:29:20.578Z,385.20
2017-10-15T04:30:20.601Z,288.20
2017-10-15T04:31:20.618Z,241.70
2017-10-15T04:32:20.635Z,166.70
2017-10-15T04:33:20.654Z,172.30
2017-10-15T04:34:20.686Z,174.80
2017-10-15T04:35:20.691Z,204.90
2017-10-15T04:36:20.712Z,203.20
2017-10-15T04:37:20.731Z,163.50
2017-10-15T04:38:20.748Z,259.90
2017-10-15T04:39:20.769Z,270.70
2017-10-15T04:40:20.787Z,428.60
2017-10-15T04:41:20.808Z,452.30
2017-10-15T04:42:20.830Z,361.90
2017-10-15T04:43:20.846Z,302.20
2017-10-15T04:44:20.861Z,486.00
2017-10-15T04:45:20.885Z,738.30
2017-10-15T04:46:20.905Z,609.30
2017-10-15T04:47:20.921Z,540.50
2017-10-15T04:48:20.945Z,492.90
2017-10-15T04:49:20.961Z,459.50
2017-10-15T04:50:20.979Z,599.80
2017-10-15T04:51:20.997Z,654.60
2017-10-15T04:52:21.015Z,499.40
2017-10-15T04:53:21.036Z,485.90
2017-10-15T04:54:21.056Z,499.40
2017-10-15T04:55:21.075Z,501.50
2017-10-15T04:56:21.092Z,438.10
2017-10-15T04:57:21.112Z,415.50
2017-10-15T04:58:21.134Z,325.90
2017-10-15T04:59:21.150Z,480.60
2017-10-15T05:00:21.167Z,523.30
2017-10-15T05:01:21.191Z,596.80
2017-10-15T05:02:21.210Z,453.70
2017-10-15T05:03:21.230Z,510.10
2017-10-15T05:04:21.247Z,487.50
2017-10-15T05:05:21.269Z,598.30
2017-10-15T05:06:21.287Z,433.10
2017-10-15T05:07:21.308Z,847.70
2017-10-15T05:08:21.324Z,513.40
2017-10-15T05:09:21.344Z,661.00
2017-10-15T05:10:21.374Z,590.40
2017-10-15T05:11:21.383Z,497.40
2017-10-15T05:12:21.401Z,508.90
2017-10-15T05:13:21.422Z,776.50
2017-10-15T05:14:21.441Z,557.30
2017-10-15T05:15:21.459Z,680.30
2017-10-15T05:16:21.480Z,613.10
2017-10-15T05:17:21.504Z,818.90
2017-10-15T05:18:21.520Z,741.00
2017-10-15T05:19:21.537Z,367.40
2017-10-15T05:20:21.555Z,636.00
2017-10-15T05:21:21.577Z,594.90
2017-10-15T05:22:21.597Z,492.30
2017-10-15T05:23:21.617Z,493.80
2017-10-15T05:24:21.635Z,436.10
2017-10-15T05:25:21.653Z,599.60
2017-10-15T05:26:21.672Z,379.70
2017-10-15T05:27:21.695Z,378.70
2017-10-15T05:28:21.715Z,402.40
2017-10-15T05:29:21.730Z,457.10
2017-10-15T05:30:21.753Z,436.70
2017-10-15T05:31:21.769Z,466.20
2017-10-15T05:32:21.786Z,228.90
2017-10-15T05:33:21.804Z,220.80
2017-10-15T05:34:21.824Z,272.90
2017-10-15T05:35:21.844Z,183.80
2017-10-15T05:36:21.862Z,132.40
2017-10-15T05:37:21.881Z,97.20
2017-10-15T05:38:21.910Z,112.00
2017-10-15T05:39:21.921Z,62.80
2017-10-15T05:40:21.945Z,43.20
2017-10-15T05:41:21.960Z,93.50
2017-10-15T05:42:21.979Z,79.10
2017-10-15T05:43:21.997Z,149.80
2017-10-15T05:44:22.017Z,135.20
2017-10-15T05:45:22.037Z,180.30
2017-10-15T05:46:22.060Z,181.60
2017-10-15T05:47:22.073Z,267.40
2017-10-15T05:48:22.093Z,324.30
2017-10-15T05:49:22.111Z,225.50
2017-10-15T05:50:22.139Z,219.10
2017-10-15T05:51:22.149Z,529.50
2017-10-15T05:52:22.224Z,340.80
2017-10-15T05:53:22.186Z,338.90
2017-10-15T05:54:22.204Z,359.40
2017-10-15T05:55:22.225Z,254.80
2017-10-15T05:56:22.246Z,430.00
2017-10-15T05:57:22.264Z,406.90
2017-10-15T05:58:22.282Z,302.30
2017-10-15T05:59:22.302Z,171.00
2017-10-15T06:00:22.319Z,238.00
2017-10-15T06:01:22.341Z,262.60
2017-10-15T06:02:22.359Z,170.10
2017-10-15T06:03:22.379Z,161.60
2017-10-15T06:04:22.397Z,249.10
2017-10-15T06:05:22.419Z,194.60
2017-10-15T06:06:22.438Z,127.60
2017-10-15T06:07:22.452Z,155.30
2017-10-15T06:08:22.471Z,213.40
2017-10-15T06:09:22.493Z,179.20
2017-10-15T06:10:22.510Z,125.60
2017-10-15T06:11:22.543Z,182.30
2017-10-15T06:12:22.550Z,217.10
2017-10-15T06:13:22.571Z,193.30
2017-10-15T06:14:22.586Z,404.40
2017-10-15T06:15:22.605Z,343.50
2017-10-15T06:16:22.623Z,327.30
2017-10-15T06:17:22.642Z,343.70
2017-10-15T06:18:22.668Z,262.60
2017-10-15T06:19:22.678Z,217.30
2017-10-15T06:20:22.724Z,526.00
2017-10-15T06:21:22.722Z,516.20
2017-10-15T06:22:22.741Z,314.30
2017-10-15T06:23:22.762Z,363.40
2017-10-15T06:24:22.779Z,387.60
2017-10-15T06:25:22.794Z,457.60
2017-10-15T06:26:22.815Z,392.70
2017-10-15T06:27:22.832Z,404.50
2017-10-15T06:28:22.856Z,300.20
2017-10-15T06:29:22.877Z,268.20
2017-10-15T06:30:22.889Z,262.10
2017-10-15T06:31:22.913Z,372.70
2017-10-15T06:32:22.929Z,410.70
2017-10-15T06:33:22.954Z,517.60
2017-10-15T06:34:22.969Z,455.40
2017-10-15T06:35:22.986Z,317.70
2017-10-15T06:36:23.027Z,416.30
2017-10-15T06:37:23.041Z,453.90
2017-10-15T06:38:23.046Z,470.80
2017-10-15T06:39:23.065Z,461.90
2017-10-15T06:40:23.081Z,468.90
2017-10-15T06:41:23.130Z,427.50
2017-10-15T06:42:23.133Z,395.70
2017-10-15T06:43:23.296Z,500.10
2017-10-15T06:44:23.159Z,475.50
2017-10-15T06:45:23.188Z,545.00
2017-10-15T06:46:23.204Z,468.00
2017-10-15T06:47:23.221Z,416.50
2017-10-15T06:48:23.246Z,407.00
2017-10-15T06:49:23.264Z,381.80
2017-10-15T06:50:23.363Z,338.50
2017-10-15T06:51:23.304Z,229.50
2017-10-15T06:52:23.325Z,220.50
2017-10-15T06:53:23.348Z,186.40
2017-10-15T06:54:23.375Z,173.00
2017-10-15T06:55:23.383Z,96.70
2017-10-15T06:56:23.412Z,51.30
2017-10-15T06:57:23.424Z,69.00
2017-10-15T06:58:23.450Z,83.10
2017-10-15T06:59:23.475Z,30.80
2017-10-15T07:00:23.487Z,25.60
2017-10-15T07:01:23.526Z,12.40
2017-10-15T07:02:23.535Z,10.30
2017-10-15T07:03:23.555Z,13.10
2017-10-15T07:04:23.578Z,8.60
2017-10-15T07:05:23.597Z,8.50
2017-10-15T07:06:23.629Z,8.20
2017-10-15T07:07:23.645Z,8.50
2017-10-15T07:08:23.660Z,8.00
2017-10-15T07:09:23.684Z,7.30
2017-10-15T07:10:23.710Z,7.40
2017-10-15T07:11:23.737Z,8.00
2017-10-15T07:12:23.799Z,9.00
2017-10-15T07:13:23.786Z,8.10
2017-10-15T07:14:23.808Z,9.10
2017-10-15T07:15:23.824Z,7.50
2017-10-15T07:16:23.847Z,6.60
2017-10-15T07:17:23.877Z,8.40
2017-10-15T07:18:23.899Z,8.50
2017-10-15T07:19:23.925Z,9.10
2017-10-15T07:20:23.945Z,7.80
2017-10-15T07:21:23.972Z,8.60
2017-10-15T07:22:23.998Z,11.50
2017-10-15T07:23:24.021Z,8.90
2017-10-15T07:24:24.046Z,9.00
2017-10-15T07:25:24.071Z,9.70
2017-10-15T07:26:24.096Z,9.40
2017-10-15T07:27:24.123Z,9.00
2017-10-15T07:28:24.153Z,9.30
2017-10-15T07:29:24.181Z,9.60
2017-10-15T07:30:24.204Z,10.60
2017-10-15T07:31:24.223Z,9.40
2017-10-15T07:32:24.250Z,11.00
2017-10-15T07:33:24.277Z,10.50
2017-10-15T07:34:24.301Z,14.70
2017-10-15T07:35:24.329Z,16.80
2017-10-15T07:36:24.351Z,15.00
2017-10-15T07:37:24.379Z,19.00
2017-10-15T07:38:24.402Z,17.80
2017-10-15T07:39:24.427Z,18.50
2017-10-15T07:40:24.460Z,18.60
2017-10-15T07:41:24.482Z,19.90
2017-10-15T07:42:24.506Z,22.60
2017-10-15T07:43:24.530Z,18.20
2017-10-15T07:44:24.555Z,15.50
2017-10-15T07:45:24.585Z,19.20
2017-10-15T07:46:24.609Z,16.20
2017-10-15T07:47:24.639Z,12.80
2017-10-15T07:48:24.661Z,13.40
2017-10-15T07:49:24.688Z,10.30
2017-10-15T07:50:24.739Z,11.90
2017-10-15T07:51:24.751Z,8.90
2017-10-15T07:52:24.775Z,9.70
2017-10-15T07:53:24.796Z,9.70
2017-10-15T07:54:24.831Z,7.70
2017-10-15T07:55:24.852Z,9.40
2017-10-15T07:56:24.872Z,10.30
2017-10-15T07:57:24.901Z,9.80
2017-10-15T07:58:24.930Z,7.80
2017-10-15T07:59:24.960Z,7.70
2017-10-15T08:00:24.986Z,8.50
2017-10-15T08:01:25.008Z,7.30
2017-10-15T08:02:25.033Z,9.10
2017-10-15T08:03:25.076Z,9.80
2017-10-15T08:04:25.102Z,8.30
2017-10-15T08:05:25.123Z,8.30
2017-10-15T08:06:25.152Z,9.00
2017-10-15T08:07:25.194Z,7.90
2017-10-15T08:08:25.199Z,8.50
2017-10-15T08:09:25.222Z,6.70
2017-10-15T08:10:25.253Z,11.80
2017-10-15T08:11:25.283Z,8.90
2017-10-15T08:12:25.304Z,7.10
2017-10-15T08:13:25.324Z,9.20
2017-10-15T08:14:25.353Z,6.90
2017-10-15T08:15:25.380Z,7.80
2017-10-15T08:16:25.402Z,10.30
2017-10-15T08:17:25.437Z,6.80
2017-10-15T08:18:25.450Z,10.90
2017-10-15T08:19:25.482Z,7.20
2017-10-15T08:20:25.511Z,8.60
2017-10-15T08:21:25.525Z,7.30
2017-10-15T08:22:25.555Z,8.40
2017-10-15T08:23:25.576Z,6.40
2017-10-15T08:24:25.602Z,8.00
2017-10-15T08:25:25.628Z,6.90
2017-10-15T08:26:25.650Z,8.80
2017-10-15T08:27:25.674Z,9.80
2017-10-15T08:28:25.699Z,13.80
2017-10-15T08:29:26.612Z,9.10
2017-10-15T08:30:25.747Z,8.20
2017-10-15T08:31:25.772Z,10.00
2017-10-15T08:32:25.792Z,7.70
2017-10-15T08:33:25.821Z,11.30
2017-10-15T08:34:25.843Z,10.60
2017-10-15T08:35:25.870Z,8.70
2017-10-15T08:36:25.887Z,7.90
2017-10-15T08:37:25.910Z,10.60
2017-10-15T08:38:25.938Z,10.50
2017-10-15T08:39:26.782Z,9.70
2017-10-15T08:40:25.981Z,10.70
2017-10-15T08:41:26.005Z,7.40
2017-10-15T08:42:26.027Z,13.00
2017-10-15T08:43:26.064Z,6.60
2017-10-15T08:44:26.086Z,8.20
2017-10-15T08:45:26.097Z,6.80
2017-10-15T08:46:26.134Z,8.10
2017-10-15T08:47:26.141Z,9.80
2017-10-15T08:48:26.413Z,6.80
2017-10-15T08:49:26.194Z,10.30
2017-10-15T08:50:26.209Z,7.10
2017-10-15T08:51:26.244Z,11.60
2017-10-15T08:52:26.260Z,6.30
2017-10-15T08:53:26.280Z,7.50
2017-10-15T08:54:26.302Z,5.50
2017-10-15T08:55:26.390Z,7.80
2017-10-15T08:56:26.354Z,11.90
2017-10-15T08:57:27.024Z,10.10
2017-10-15T08:58:26.395Z,5.70
2017-10-15T08:59:26.419Z,8.50
2017-10-15T09:00:26.451Z,7.90
2017-10-15T09:01:26.464Z,6.40
2017-10-15T09:02:26.492Z,5.90
2017-10-15T09:03:26.599Z,9.80
2017-10-15T09:04:26.531Z,8.20
2017-10-15T09:05:26.552Z,7.80
2017-10-15T09:06:26.597Z,7.50
2017-10-15T09:07:26.597Z,7.70
2017-10-15T09:08:26.630Z,9.30
2017-10-15T09:09:26.645Z,7.00
2017-10-15T09:10:26.664Z,10.80
2017-10-15T09:11:26.701Z,9.30
2017-10-15T09:12:26.712Z,6.60
2017-10-15T09:13:26.732Z,7.80
2017-10-15T09:14:26.755Z,7.60
2017-10-15T09:15:27.599Z,10.10
2017-10-15T09:16:26.802Z,7.60
2017-10-15T09:17:26.824Z,6.60
2017-10-15T09:18:26.848Z,7.70
2017-10-15T09:19:27.088Z,10.10
2017-10-15T09:20:26.894Z,12.40
2017-10-15T09:21:26.917Z,8.90
2017-10-15T09:22:26.935Z,8.30
2017-10-15T09:23:26.961Z,9.60
2017-10-15T09:24:26.980Z,9.70
2017-10-15T09:25:27.006Z,10.40
2017-10-15T09:26:27.596Z,8.00
2017-10-15T09:27:27.050Z,8.40
2017-10-15T09:28:27.132Z,11.60
2017-10-15T09:29:27.194Z,11.10
2017-10-15T09:30:27.135Z,8.20
2017-10-15T09:31:27.159Z,14.10
2017-10-15T09:32:27.165Z,10.30
2017-10-15T09:33:27.182Z,9.30
2017-10-15T09:34:27.213Z,6.90
2017-10-15T09:35:27.238Z,9.70
2017-10-15T09:36:27.254Z,6.60
2017-10-15T09:37:27.275Z,7.40
2017-10-15T09:38:27.296Z,8.80
2017-10-15T09:39:27.336Z,8.60
2017-10-15T09:40:27.341Z,7.30
2017-10-15T09:41:27.490Z,8.40
2017-10-15T09:42:27.389Z,7.50
2017-10-15T09:43:27.424Z,7.80
2017-10-15T09:44:27.477Z,8.40
2017-10-15T09:45:27.455Z,11.50
2017-10-15T09:46:27.483Z,10.20
2017-10-15T09:47:27.509Z,7.00
2017-10-15T09:48:27.522Z,6.90
2017-10-15T09:49:27.548Z,9.10
2017-10-15T09:50:27.568Z,6.60
2017-10-15T09:51:27.592Z,9.40
2017-10-15T09:52:27.613Z,8.10
2017-10-15T09:53:29.332Z,7.60
2017-10-15T09:54:27.669Z,10.80
2017-10-15T09:55:27.686Z,10.20
2017-10-15T09:56:27.705Z,8.80
2017-10-15T09:57:27.726Z,10.40
2017-10-15T09:58:27.759Z,12.20
2017-10-15T09:59:27.777Z,7.60
2017-10-15T10:00:27.797Z,6.80
2017-10-15T10:01:27.823Z,10.90
2017-10-15T10:02:27.841Z,9.40
2017-10-15T10:03:27.868Z,11.80
2017-10-15T10:04:27.885Z,7.50
2017-10-15T10:05:28.041Z,7.40
2017-10-15T10:06:27.933Z,9.80
2017-10-15T10:07:27.971Z,9.50
2017-10-15T10:08:27.983Z,9.80
2017-10-15T10:09:28.033Z,9.30
2017-10-15T10:10:28.021Z,7.80
2017-10-15T10:11:28.046Z,8.40
2017-10-15T10:12:28.072Z,10.60
2017-10-15T10:13:28.097Z,7.70
2017-10-15T10:14:28.113Z,8.20
2017-10-15T10:15:28.135Z,10.50
2017-10-15T10:16:28.156Z,9.40
2017-10-15T10:17:28.181Z,13.00
2017-10-15T10:18:28.203Z,9.50
2017-10-15T10:19:28.229Z,10.40
2017-10-15T10:20:28.249Z,7.50
2017-10-15T10:21:28.272Z,7.40
2017-10-15T10:22:28.296Z,7.80
2017-10-15T10:23:28.324Z,8.00
2017-10-15T10:24:28.346Z,8.30
2017-10-15T10:25:28.364Z,9.30
2017-10-15T10:26:28.389Z,9.10
2017-10-15T10:27:28.414Z,12.60
2017-10-15T10:28:28.436Z,11.10
2017-10-15T10:29:28.458Z,9.80
2017-10-15T10:30:28.482Z,11.80
2017-10-15T10:31:28.505Z,8.70
2017-10-15T10:32:28.526Z,10.70
2017-10-15T10:33:28.548Z,9.20
2017-10-15T10:34:28.573Z,9.90
2017-10-15T10:35:28.596Z,11.20
2017-10-15T10:36:28.634Z,9.60
2017-10-15T10:37:28.644Z,10.10
2017-10-15T10:38:28.674Z,9.80
2017-10-15T10:39:28.687Z,12.80
2017-10-15T10:40:28.707Z,9.60
2017-10-15T10:41:28.733Z,9.60
2017-10-15T10:42:28.779Z,9.60
2017-10-15T10:43:28.783Z,8.40
2017-10-15T10:44:28.800Z,9.70
2017-10-15T10:45:28.835Z,10.50
2017-10-15T10:46:28.847Z,11.20
2017-10-15T10:47:28.873Z,8.30
2017-10-15T10:48:28.908Z,8.30
2017-10-15T10:49:28.913Z,7.30
2017-10-15T10:50:28.941Z,9.90
2017-10-15T10:51:28.960Z,6.50
2017-10-15T10:52:29.006Z,12.50
2017-10-15T10:53:29.006Z,6.10
2017-10-15T10:54:29.032Z,9.90
2017-10-15T10:55:29.052Z,8.30
2017-10-15T10:56:29.077Z,10.30
2017-10-15T10:57:29.099Z,8.30
2017-10-15T10:58:29.119Z,7.80
2017-10-15T10:59:29.145Z,8.70
2017-10-15T11:00:29.171Z,8.30
2017-10-15T11:01:29.190Z,7.30
2017-10-15T11:02:29.214Z,6.50
2017-10-15T11:03:29.233Z,5.90
2017-10-15T11:04:29.257Z,6.90
2017-10-15T11:05:29.290Z,9.00
2017-10-15T11:06:29.301Z,10.10
2017-10-15T11:07:29.329Z,6.70
2017-10-15T11:08:29.350Z,9.40
2017-10-15T11:09:29.373Z,8.60
2017-10-15T11:10:29.405Z,12.50
2017-10-15T11:11:29.458Z,7.60
2017-10-15T11:12:29.443Z,9.90
2017-10-15T11:13:29.482Z,7.50
2017-10-15T11:14:29.486Z,7.40
2017-10-15T11:15:29.513Z,9.60
2017-10-15T11:16:29.536Z,8.60
2017-10-15T11:17:29.564Z,8.30
2017-10-15T11:18:29.580Z,7.50
2017-10-15T11:19:29.621Z,8.40
2017-10-15T11:20:29.630Z,8.10
2017-10-15T11:21:29.655Z,10.90
2017-10-15T11:22:29.675Z,7.20
2017-10-15T11:23:29.703Z,7.70
2017-10-15T11:24:29.729Z,9.70
2017-10-15T11:25:29.743Z,7.60
2017-10-15T11:26:29.791Z,7.20
2017-10-15T11:27:29.798Z,8.50
2017-10-15T11:28:29.812Z,9.50
2017-10-15T11:29:29.924Z,7.80
2017-10-15T11:30:29.859Z,9.20
2017-10-15T11:31:29.883Z,11.00
2017-10-15T11:32:29.906Z,8.90
2017-10-15T11:33:29.931Z,10.00
2017-10-15T11:34:29.962Z,6.90
2017-10-15T11:35:29.975Z,8.40
2017-10-15T11:36:30.015Z,8.80
2017-10-15T11:37:30.031Z,10.00
2017-10-15T11:38:30.050Z,7.00
2017-10-15T11:39:30.066Z,9.60
2017-10-15T11:40:30.102Z,11.10
2017-10-15T11:41:30.123Z,8.60
2017-10-15T11:42:30.138Z,9.20
2017-10-15T11:43:30.166Z,8.80
2017-10-15T11:44:30.210Z,10.40
2017-10-15T11:45:30.228Z,9.00
2017-10-15T11:46:30.245Z,9.90
2017-10-15T11:47:30.294Z,8.90
2017-10-15T11:48:30.285Z,8.90
2017-10-15T11:49:30.318Z,9.50
2017-10-15T11:50:30.339Z,11.70
2017-10-15T11:51:30.349Z,8.80
2017-10-15T11:52:30.378Z,9.60
2017-10-15T11:53:30.392Z,9.50
2017-10-15T11:54:30.468Z,9.40
2017-10-15T11:55:30.443Z,9.50
2017-10-15T11:56:30.475Z,8.60
2017-10-15T11:57:30.495Z,9.00
2017-10-15T11:58:30.514Z,7.70
2017-10-15T11:59:30.536Z,6.70
2017-10-15T12:00:30.563Z,10.70
2017-10-15T12:01:30.583Z,9.40
2017-10-15T12:02:30.619Z,11.40
2017-10-15T12:03:30.641Z,7.40
2017-10-15T12:04:30.652Z,9.00
2017-10-15T12:05:30.674Z,7.40
2017-10-15T12:06:30.701Z,9.90
2017-10-15T12:07:30.722Z,8.90
2017-10-15T12:08:30.746Z,11.00
2017-10-15T12:09:30.770Z,10.60
2017-10-15T12:10:30.796Z,8.90
2017-10-15T12:11:30.826Z,14.10
2017-10-15T12:12:30.840Z,7.30
2017-10-15T12:13:30.864Z,5.80
2017-10-15T12:14:30.889Z,10.10
2017-10-15T12:15:30.910Z,10.40
2017-10-15T12:16:30.936Z,11.90
2017-10-15T12:17:30.962Z,8.70
2017-10-15T12:18:30.981Z,8.70
2017-10-15T12:19:31.011Z,9.20
2017-10-15T12:20:31.031Z,8.70
2017-10-15T12:21:31.071Z,6.60
2017-10-15T12:22:31.088Z,9.30
2017-10-15T12:23:31.100Z,6.30
2017-10-15T12:24:31.123Z,8.40
2017-10-15T12:25:31.149Z,8.90
2017-10-15T12:26:31.175Z,12.10
2017-10-15T12:27:31.196Z,7.50
2017-10-15T12:28:31.222Z,7.70
2017-10-15T12:29:31.241Z,9.30
2017-10-15T12:30:31.273Z,11.00
2017-10-15T12:31:31.291Z,10.90
2017-10-15T12:32:31.323Z,8.60
2017-10-15T12:33:31.338Z,8.20
2017-10-15T12:34:31.363Z,7.60
2017-10-15T12:35:31.387Z,8.20
2017-10-15T12:36:31.410Z,8.70
2017-10-15T12:37:31.435Z,7.90
2017-10-15T12:38:31.690Z,7.90
2017-10-15T12:39:31.554Z,9.40
2017-10-15T12:40:31.525Z,6.60
2017-10-15T12:41:31.535Z,9.20
2017-10-15T12:42:31.554Z,8.40
2017-10-15T12:43:31.577Z,9.90
2017-10-15T12:44:31.630Z,8.20
2017-10-15T12:45:31.624Z,8.30
2017-10-15T12:46:31.646Z,11.80
2017-10-15T12:47:31.674Z,7.60
2017-10-15T12:48:31.695Z,8.40
2017-10-15T12:49:31.719Z,8.90
2017-10-15T12:50:31.743Z,7.40
2017-10-15T12:51:31.769Z,10.40
2017-10-15T12:52:31.789Z,9.10
2017-10-15T12:53:31.834Z,11.60
2017-10-15T12:54:31.839Z,9.10
2017-10-15T12:55:31.862Z,6.30
2017-10-15T12:56:31.888Z,7.00